createdAt,value
2018-11-02T00:02:27.653Z,11.55
2018-11-02T00:05:02.086Z,10.93
2018-11-02T00:07:36.496Z,11.03
2018-11-02T00:10:10.828Z,11.80
2018-11-02T00:12:45.110Z,11.12
2018-11-02T00:15:19.472Z,13.88
2018-11-02T00:17:53.856Z,12.20
2018-11-02T00:20:28.209Z,12.45
2018-11-02T00:23:02.612Z,12.55
2018-11-02T00:25:38.202Z,13.20
2018-11-02T00:28:12.557Z,12.47
2018-11-02T00:30:46.977Z,12.60
2018-11-02T00:33:21.302Z,12.20
2018-11-02T00:35:55.618Z,11.28
2018-11-02T00:38:29.960Z,13.85
2018-11-02T00:41:04.318Z,13.50
2018-11-02T00:43:38.944Z,14.63
2018-11-02T00:46:13.376Z,12.75
2018-11-02T00:48:47.931Z,12.35
2018-11-02T00:51:22.451Z,12.35
2018-11-02T00:53:57.042Z,12.25
2018-11-02T00:56:31.509Z,14.03
2018-11-02T00:59:06.036Z,13.98
2018-11-02T01:01:40.281Z,13.05
2018-11-02T01:04:14.740Z,13.25
2018-11-02T01:06:49.265Z,13.80
2018-11-02T01:09:23.688Z,13.90
2018-11-02T01:11:58.111Z,14.35
2018-11-02T01:14:33.413Z,14.13
2018-11-02T01:17:07.896Z,14.80
2018-11-02T01:19:42.745Z,14.18
2018-11-02T01:22:17.116Z,13.58
2018-11-02T01:24:51.580Z,15.43
2018-11-02T01:27:26.021Z,16.05
2018-11-02T01:30:00.470Z,14.90
2018-11-02T01:32:34.877Z,16.37
2018-11-02T01:35:09.837Z,16.75
2018-11-02T01:37:44.116Z,16.77
2018-11-02T01:40:18.436Z,18.40
2018-11-02T01:42:52.848Z,16.77
2018-11-02T01:45:27.185Z,17.75
2018-11-02T01:48:01.541Z,18.52
2018-11-02T01:50:36.022Z,17.10
2018-11-02T01:53:10.153Z,18.23
2018-11-02T01:55:44.608Z,18.35
2018-11-02T01:58:19.242Z,18.50
2018-11-02T02:00:54.519Z,18.57
2018-11-02T02:03:29.269Z,18.52
2018-11-02T02:06:03.565Z,19.67
2018-11-02T02:08:38.117Z,17.95
2018-11-02T02:11:12.442Z,20.60
2018-11-02T02:13:47.137Z,18.30
2018-11-02T02:16:21.600Z,18.77
2018-11-02T02:18:55.810Z,18.60
2018-11-02T02:21:30.281Z,18.20
2018-11-02T02:24:04.574Z,19.20
2018-11-02T02:26:39.449Z,19.05
2018-11-02T02:29:13.748Z,17.98
2018-11-02T02:31:47.956Z,19.30
2018-11-02T02:34:22.397Z,18.82
2018-11-02T02:36:58.035Z,19.05
2018-11-02T02:39:33.512Z,19.80
2018-11-02T02:42:07.923Z,19.57
2018-11-02T02:44:42.137Z,20.23
2018-11-02T02:47:16.517Z,20.45
2018-11-02T02:49:50.851Z,19.20
2018-11-02T02:52:25.335Z,17.90
2018-11-02T02:54:59.678Z,17.85
2018-11-02T02:57:34.865Z,16.62
2018-11-02T03:00:11.301Z,18.23
2018-11-02T03:02:45.558Z,18.75
2018-11-02T03:05:19.837Z,18.55
2018-11-02T03:07:54.187Z,17.70
2018-11-02T03:10:28.698Z,19.90
2018-11-02T03:13:02.984Z,17.62
2018-11-02T03:15:37.478Z,19.60
2018-11-02T03:18:13.283Z,17.15
2018-11-02T03:20:47.649Z,18.10
2018-11-02T03:23:21.904Z,17.85
2018-11-02T03:25:56.333Z,15.93
2018-11-02T03:28:31.456Z,18.00
2018-11-02T03:31:05.732Z,18.20
2018-11-02T03:33:40.136Z,16.97
2018-11-02T03:36:15.169Z,16.23
2018-11-02T03:38:49.345Z,19.73
2018-11-02T03:41:23.825Z,15.95
2018-11-02T03:43:57.972Z,16.00
2018-11-02T03:46:32.300Z,16.35
2018-11-02T03:49:06.633Z,14.83
2018-11-02T03:51:41.003Z,15.35
2018-11-02T03:54:15.853Z,16.02
2018-11-02T03:56:50.214Z,16.05
2018-11-02T03:59:24.465Z,15.18
2018-11-02T04:01:58.889Z,15.88
2018-11-02T04:04:33.166Z,13.68
2018-11-02T04:07:07.605Z,13.95
2018-11-02T04:09:42.020Z,15.05
2018-11-02T04:12:16.243Z,14.68
2018-11-02T04:14:50.533Z,15.35
2018-11-02T04:17:25.057Z,14.80
2018-11-02T04:19:59.688Z,14.70
2018-11-02T04:22:34.085Z,15.58
2018-11-02T04:25:08.728Z,14.85
2018-11-02T04:27:43.195Z,14.75
2018-11-02T04:30:18.647Z,15.65
2018-11-02T04:32:52.908Z,15.18
2018-11-02T04:35:27.374Z,13.60
2018-11-02T04:38:01.809Z,13.13
2018-11-02T04:40:36.276Z,14.13
2018-11-02T04:43:10.622Z,14.47
2018-11-02T04:45:45.018Z,13.38
2018-11-02T04:48:19.848Z,14.30
2018-11-02T04:50:54.368Z,12.43
2018-11-02T04:53:28.676Z,13.58
2018-11-02T04:56:03.062Z,13.22
2018-11-02T04:58:37.437Z,12.50
2018-11-02T05:01:11.752Z,11.53
2018-11-02T05:03:46.089Z,11.95
2018-11-02T05:06:20.333Z,12.23
2018-11-02T05:08:54.700Z,13.67
2018-11-02T05:11:30.326Z,12.10
2018-11-02T05:14:04.970Z,12.93
2018-11-02T05:16:39.189Z,12.10
2018-11-02T05:19:13.760Z,12.90
2018-11-02T05:21:48.236Z,12.90
2018-11-02T05:24:22.644Z,12.83
2018-11-02T05:26:56.888Z,11.47
2018-11-02T05:29:31.088Z,11.97
2018-11-02T05:32:06.779Z,12.70
2018-11-02T05:34:44.167Z,12.63
2018-11-02T05:37:18.688Z,10.80
2018-11-02T05:39:53.487Z,11.33
2018-11-02T05:42:27.916Z,11.83
2018-11-02T05:45:02.613Z,12.13
2018-11-02T05:47:37.015Z,12.07
2018-11-02T05:50:12.382Z,12.27
2018-11-02T05:52:48.356Z,10.23
2018-11-02T05:55:22.670Z,11.80
2018-11-02T05:57:57.097Z,11.73
2018-11-02T06:00:31.609Z,11.80
2018-11-02T06:03:06.028Z,11.35
2018-11-02T06:05:40.585Z,8.37
2018-11-02T06:08:14.882Z,9.15
2018-11-02T06:10:49.096Z,9.98
2018-11-02T06:13:23.454Z,9.60
2018-11-02T06:15:57.709Z,9.55
2018-11-02T06:18:32.289Z,9.47
2018-11-02T06:21:06.833Z,8.90
2018-11-02T06:23:41.374Z,8.50
2018-11-02T06:26:15.907Z,7.77
2018-11-02T06:28:50.268Z,8.13
2018-11-02T06:31:24.459Z,8.60
2018-11-02T06:33:58.798Z,8.00
2018-11-02T06:36:32.981Z,8.20
2018-11-02T06:39:09.056Z,8.80
2018-11-02T06:41:43.439Z,8.40
2018-11-02T06:44:18.450Z,8.80
2018-11-02T06:46:53.202Z,8.77
2018-11-02T06:49:27.402Z,9.50
2018-11-02T06:52:05.260Z,6.77
2018-11-02T06:54:39.685Z,6.63
2018-11-02T06:57:15.167Z,7.43
2018-11-02T06:59:49.740Z,7.37
2018-11-02T07:02:24.059Z,6.87
2018-11-02T07:04:58.345Z,7.13
2018-11-02T07:07:33.848Z,6.50
2018-11-02T07:10:08.873Z,7.03
2018-11-02T07:12:43.436Z,6.80
2018-11-02T07:15:17.752Z,5.93
2018-11-02T07:17:52.094Z,6.33
2018-11-02T07:20:26.313Z,7.27
2018-11-02T07:23:00.866Z,6.13
2018-11-02T07:25:35.236Z,6.23
2018-11-02T07:28:09.740Z,5.77
2018-11-02T07:30:44.315Z,6.73
2018-11-02T07:33:18.671Z,5.40
2018-11-02T07:35:53.058Z,5.83
2018-11-02T07:38:27.298Z,6.80
2018-11-02T07:41:01.605Z,6.20
2018-11-02T07:43:35.985Z,5.93
2018-11-02T07:46:10.275Z,6.23
2018-11-02T07:48:44.624Z,6.10
2018-11-02T07:51:19.365Z,6.40
2018-11-02T07:53:53.846Z,5.40
2018-11-02T07:56:28.302Z,5.83
2018-11-02T07:59:02.732Z,6.13
2018-11-02T08:01:37.068Z,6.27
2018-11-02T08:04:11.392Z,5.30
2018-11-02T08:06:45.665Z,6.07
2018-11-02T08:09:19.922Z,5.90
2018-11-02T08:11:54.150Z,5.23
2018-11-02T08:14:28.517Z,5.30
2018-11-02T08:17:02.950Z,5.83
2018-11-02T08:19:37.164Z,6.53
2018-11-02T08:22:11.388Z,7.13
2018-11-02T08:24:45.729Z,6.43
2018-11-02T08:27:20.013Z,6.17
2018-11-02T08:29:54.650Z,6.93
2018-11-02T08:32:29.115Z,7.00
2018-11-02T08:35:03.484Z,6.90
2018-11-02T08:37:37.906Z,6.40
2018-11-02T08:40:13.343Z,6.60
2018-11-02T08:42:47.638Z,8.27
2018-11-02T08:45:21.957Z,8.10
2018-11-02T08:47:56.356Z,8.13
2018-11-02T08:50:30.706Z,9.37
2018-11-02T08:53:05.388Z,7.83
2018-11-02T08:55:39.560Z,8.60
2018-11-02T08:58:14.077Z,9.17
2018-11-02T09:00:48.533Z,8.00
2018-11-02T09:03:23.660Z,8.23
2018-11-02T09:05:58.031Z,8.27
2018-11-02T09:08:32.393Z,7.60
2018-11-02T09:11:06.997Z,8.43
2018-11-02T09:13:41.221Z,9.50
2018-11-02T09:16:15.712Z,8.43
2018-11-02T09:18:51.151Z,7.27
2018-11-02T09:21:25.345Z,8.60
2018-11-02T09:23:59.628Z,8.20
2018-11-02T09:26:34.064Z,8.90
2018-11-02T09:29:09.161Z,8.33
2018-11-02T09:31:43.430Z,9.10
2018-11-02T09:34:17.721Z,8.80
2018-11-02T09:36:52.194Z,9.43
2018-11-02T09:39:26.936Z,9.40
2018-11-02T09:42:01.133Z,9.27
2018-11-02T09:44:35.493Z,9.30
2018-11-02T09:47:09.867Z,9.43
2018-11-02T09:49:44.040Z,10.83
2018-11-02T09:52:18.209Z,10.80
2018-11-02T09:54:52.500Z,12.73
2018-11-02T09:57:26.709Z,9.70
2018-11-02T10:00:00.989Z,10.13
2018-11-02T10:02:35.278Z,9.87
2018-11-02T10:05:10.670Z,8.97
2018-11-02T10:07:44.968Z,9.13
2018-11-02T10:10:19.373Z,8.50
2018-11-02T10:12:54.179Z,8.73
2018-11-02T10:15:28.537Z,9.70
2018-11-02T10:18:02.800Z,8.03
2018-11-02T10:20:37.125Z,8.53
2018-11-02T10:23:11.424Z,8.20
2018-11-02T10:25:45.773Z,7.30
2018-11-02T10:28:20.639Z,7.03
2018-11-02T10:30:54.889Z,7.20
2018-11-02T10:33:29.125Z,7.80
2018-11-02T10:36:05.279Z,7.27
2018-11-02T10:38:39.724Z,6.60
2018-11-02T10:41:17.359Z,6.50
2018-11-02T10:43:51.762Z,7.30
2018-11-02T10:46:26.185Z,6.63
2018-11-02T10:49:00.468Z,7.30
2018-11-02T10:51:34.623Z,7.37
2018-11-02T10:54:08.916Z,6.60
2018-11-02T10:56:43.193Z,7.67
2018-11-02T10:59:21.124Z,6.83
2018-11-02T11:02:00.764Z,8.07
2018-11-02T11:04:35.408Z,7.57
2018-11-02T11:07:09.656Z,7.17
2018-11-02T11:09:44.529Z,6.90
2018-11-02T11:12:19.580Z,7.73
2018-11-02T11:14:54.283Z,7.13
2018-11-02T11:17:28.574Z,7.83
2018-11-02T11:20:02.910Z,8.03
2018-11-02T11:22:37.360Z,7.73
2018-11-02T11:25:14.633Z,7.63
2018-11-02T11:27:48.944Z,8.00
2018-11-02T11:30:23.353Z,9.10
2018-11-02T11:32:57.707Z,8.17
2018-11-02T11:35:31.981Z,9.27
2018-11-02T11:38:06.455Z,10.97
2018-11-02T11:40:40.746Z,10.33
2018-11-02T11:43:15.093Z,11.30
2018-11-02T11:45:49.306Z,12.07
2018-11-02T11:48:23.722Z,12.00
2018-11-02T11:50:58.064Z,11.90
2018-11-02T11:53:32.365Z,12.33
2018-11-02T11:56:08.535Z,9.93
2018-11-02T11:58:42.855Z,10.93
2018-11-02T12:01:17.226Z,11.47
2018-11-02T12:03:51.571Z,11.47
2018-11-02T12:06:25.879Z,12.33
2018-11-02T12:09:00.386Z,10.53
2018-11-02T12:11:34.610Z,12.20
2018-11-02T12:14:08.985Z,10.40
2018-11-02T12:16:43.201Z,12.30
2018-11-02T12:19:17.530Z,11.87
2018-11-02T12:21:51.940Z,10.77
2018-11-02T12:24:26.378Z,9.63
2018-11-02T12:27:00.822Z,9.43
2018-11-02T12:29:35.220Z,9.20
2018-11-02T12:32:09.481Z,9.40
2018-11-02T12:34:43.881Z,8.37
2018-11-02T12:37:18.410Z,9.50
2018-11-02T12:39:52.744Z,9.30
2018-11-02T12:42:27.386Z,7.80
2018-11-02T12:45:01.758Z,7.43
2018-11-02T12:47:36.824Z,8.60
2018-11-02T12:50:15.733Z,9.90
2018-11-02T12:52:51.158Z,7.03
2018-11-02T12:55:25.541Z,7.43
2018-11-02T12:58:01.150Z,7.50
2018-11-02T13:00:35.525Z,6.50
2018-11-02T13:03:09.875Z,7.27
2018-11-02T13:05:44.116Z,7.30
2018-11-02T13:08:18.406Z,7.70
2018-11-02T13:10:52.642Z,6.30
2018-11-02T13:13:26.971Z,7.60
2018-11-02T13:16:01.477Z,6.83
2018-11-02T13:18:35.888Z,6.20
2018-11-02T13:21:10.314Z,6.67
2018-11-02T13:23:44.577Z,6.30
2018-11-02T13:26:19.851Z,6.57
2018-11-02T13:28:54.019Z,5.60
2018-11-02T13:31:28.523Z,5.27
2018-11-02T13:34:02.716Z,6.63
2018-11-02T13:36:37.215Z,5.50
2018-11-02T13:39:12.826Z,6.53
2018-11-02T13:41:47.094Z,6.30
2018-11-02T13:44:21.315Z,6.50
2018-11-02T13:46:55.830Z,7.20
2018-11-02T13:49:30.175Z,6.90
2018-11-02T13:52:04.943Z,7.77
2018-11-02T13:54:39.369Z,7.10
2018-11-02T13:57:13.555Z,8.80
2018-11-02T13:59:47.959Z,7.90
2018-11-02T14:02:22.322Z,7.10
2018-11-02T14:04:56.485Z,6.80
2018-11-02T14:07:30.675Z,8.27
2018-11-02T14:10:05.601Z,8.47
2018-11-02T14:12:40.454Z,9.23
2018-11-02T14:15:15.924Z,9.17
2018-11-02T14:17:50.104Z,9.60
2018-11-02T14:20:24.351Z,8.73
2018-11-02T14:22:58.725Z,8.17
2018-11-02T14:25:33.106Z,8.10
2018-11-02T14:28:07.720Z,9.00
2018-11-02T14:30:42.049Z,9.50
2018-11-02T14:33:16.441Z,9.43
2018-11-02T14:35:50.596Z,9.00
2018-11-02T14:38:25.021Z,10.07
2018-11-02T14:40:59.711Z,10.40
2018-11-02T14:43:33.925Z,11.20
2018-11-02T14:46:08.348Z,10.00
2018-11-02T14:48:42.757Z,10.20
2018-11-02T14:51:17.082Z,10.20
2018-11-02T14:53:51.767Z,11.17
2018-11-02T14:56:26.233Z,10.40
2018-11-02T14:59:00.773Z,10.90
2018-11-02T15:01:35.036Z,9.50
2018-11-02T15:04:09.261Z,10.90
2018-11-02T15:06:43.642Z,8.60
2018-11-02T15:09:17.930Z,9.37
2018-11-02T15:11:52.150Z,7.13
2018-11-02T15:14:26.342Z,6.73
2018-11-02T15:17:00.694Z,7.47
2018-11-02T15:19:35.188Z,7.30
2018-11-02T15:22:09.417Z,8.07
2018-11-02T15:24:43.670Z,9.63
2018-11-02T15:27:18.998Z,7.83
2018-11-02T15:29:53.240Z,7.90
2018-11-02T15:32:27.514Z,7.83
2018-11-02T15:35:01.660Z,7.57
2018-11-02T15:37:35.966Z,7.63
2018-11-02T15:40:11.353Z,7.97
2018-11-02T15:42:46.118Z,7.63
2018-11-02T15:45:20.607Z,7.90
2018-11-02T15:47:54.749Z,8.47
2018-11-02T15:50:28.999Z,9.43
2018-11-02T15:53:03.366Z,8.33
2018-11-02T15:55:37.716Z,9.10
2018-11-02T15:58:12.012Z,7.47
2018-11-02T16:00:46.341Z,6.87
2018-11-02T16:03:20.629Z,8.30
2018-11-02T16:05:54.858Z,7.20
2018-11-02T16:08:29.255Z,8.73
2018-11-02T16:11:04.255Z,10.43
2018-11-02T16:13:38.604Z,8.10
2018-11-02T16:16:12.948Z,8.43
2018-11-02T16:18:47.420Z,6.80
2018-11-02T16:21:21.764Z,8.13
2018-11-02T16:23:56.018Z,7.80
2018-11-02T16:26:30.448Z,8.50
2018-11-02T16:29:04.905Z,6.58
2018-11-02T16:31:39.141Z,8.50
2018-11-02T16:34:13.506Z,7.05
2018-11-02T16:36:47.786Z,6.53
2018-11-02T16:39:22.128Z,7.42
2018-11-02T16:41:56.450Z,7.15
2018-11-02T16:44:30.818Z,8.25
2018-11-02T16:47:05.060Z,6.70
2018-11-02T16:49:39.545Z,6.58
2018-11-02T16:52:13.817Z,6.97
2018-11-02T16:54:48.108Z,7.07
2018-11-02T16:57:22.560Z,7.43
2018-11-02T16:59:56.802Z,7.10
2018-11-02T17:02:31.036Z,7.10
2018-11-02T17:05:06.298Z,7.43
2018-11-02T17:07:40.935Z,9.90
2018-11-02T17:10:15.855Z,8.10
2018-11-02T17:12:50.274Z,9.53
2018-11-02T17:15:24.985Z,9.43
2018-11-02T17:17:59.332Z,9.97
2018-11-02T17:20:33.592Z,8.68
2018-11-02T17:23:08.422Z,10.45
2018-11-02T17:25:42.718Z,9.40
2018-11-02T17:28:17.149Z,10.50
2018-11-02T17:30:51.504Z,10.13
2018-11-02T17:33:25.793Z,9.80
2018-11-02T17:36:01.037Z,9.73
2018-11-02T17:38:35.494Z,10.87
2018-11-02T17:41:10.619Z,10.23
2018-11-02T17:43:45.232Z,11.40
2018-11-02T17:46:19.796Z,10.88
2018-11-02T17:48:54.232Z,10.43
2018-11-02T17:51:28.615Z,11.70
2018-11-02T17:54:03.130Z,12.30
2018-11-02T17:56:37.519Z,12.70
2018-11-02T17:59:11.859Z,12.60
2018-11-02T18:01:46.270Z,11.43
2018-11-02T18:04:20.632Z,12.25
2018-11-02T18:06:55.116Z,13.53
2018-11-02T18:09:29.392Z,13.53
2018-11-02T18:12:03.601Z,11.40
2018-11-02T18:14:38.050Z,12.33
2018-11-02T18:17:12.465Z,12.13
2018-11-02T18:19:46.820Z,12.18
2018-11-02T18:22:21.239Z,12.03
2018-11-02T18:24:55.579Z,11.93
2018-11-02T18:27:29.796Z,12.50
2018-11-02T18:30:05.108Z,10.75
2018-11-02T18:32:39.736Z,14.13
2018-11-02T18:35:13.992Z,33.83
2018-11-02T18:37:48.357Z,20.57
2018-11-02T18:40:22.674Z,15.90
2018-11-02T18:42:57.009Z,13.62
2018-11-02T18:45:31.965Z,14.33
2018-11-02T18:48:06.276Z,14.78
2018-11-02T18:50:40.649Z,13.83
2018-11-02T18:53:15.136Z,15.05
2018-11-02T18:55:49.305Z,13.90
2018-11-02T18:58:23.583Z,13.03
2018-11-02T19:00:57.944Z,14.33
2018-11-02T19:03:32.342Z,13.58
2018-11-02T19:06:06.860Z,16.77
2018-11-02T19:08:41.000Z,14.60
2018-11-02T19:11:15.305Z,14.78
2018-11-02T19:13:49.630Z,19.90
2018-11-02T19:16:23.989Z,14.00
2018-11-02T19:18:58.251Z,15.53
2018-11-02T19:21:32.665Z,15.23
2018-11-02T19:24:06.837Z,14.28
2018-11-02T19:26:41.177Z,15.78
2018-11-02T19:29:15.523Z,16.93
2018-11-02T19:31:49.776Z,15.78
2018-11-02T19:34:24.083Z,15.30
2018-11-02T19:36:58.891Z,16.25
2018-11-02T19:39:33.232Z,14.23
2018-11-02T19:42:07.534Z,19.12
2018-11-02T19:44:41.987Z,14.85
2018-11-02T19:47:16.545Z,15.23
2018-11-02T19:49:50.950Z,13.83
2018-11-02T19:52:25.207Z,14.30
2018-11-02T19:54:59.588Z,16.45
2018-11-02T19:57:33.959Z,13.40
2018-11-02T20:00:10.167Z,13.00
2018-11-02T20:02:44.405Z,15.53
2018-11-02T20:05:19.570Z,12.82
2018-11-02T20:07:53.922Z,13.53
2018-11-02T20:10:28.409Z,13.00
2018-11-02T20:13:02.681Z,13.20
2018-11-02T20:15:37.156Z,16.10
2018-11-02T20:18:11.314Z,11.75
2018-11-02T20:20:45.780Z,11.85
2018-11-02T20:23:20.282Z,11.38
2018-11-02T20:25:54.758Z,12.43
2018-11-02T20:28:29.038Z,12.45
2018-11-02T20:31:03.538Z,13.25
2018-11-02T20:33:37.897Z,12.95
2018-11-02T20:36:12.153Z,11.63
2018-11-02T20:38:46.445Z,10.85
2018-11-02T20:41:20.785Z,10.68
2018-11-02T20:43:55.020Z,11.78
2018-11-02T20:46:29.349Z,11.00
2018-11-02T20:49:03.696Z,12.05
2018-11-02T20:51:37.997Z,11.63
2018-11-02T20:54:12.197Z,10.68
2018-11-02T20:56:46.412Z,13.28
2018-11-02T20:59:20.834Z,12.25
2018-11-02T21:01:55.212Z,11.30
2018-11-02T21:04:29.564Z,10.88
2018-11-02T21:07:04.157Z,10.80
2018-11-02T21:09:38.492Z,11.60
2018-11-02T21:12:12.468Z,11.28
2018-11-02T21:14:46.864Z,10.98
2018-11-02T21:17:21.088Z,13.40
2018-11-02T21:19:56.176Z,11.78
2018-11-02T21:22:30.772Z,12.45
2018-11-02T21:25:06.225Z,11.65
2018-11-02T21:27:41.279Z,13.40
2018-11-02T21:30:17.574Z,12.15
2018-11-02T21:32:52.596Z,12.60
2018-11-02T21:35:26.950Z,11.80
2018-11-02T21:38:01.371Z,11.45
2018-11-02T21:40:35.701Z,11.00
2018-11-02T21:43:10.193Z,13.30
2018-11-02T21:45:44.380Z,13.65
2018-11-02T21:48:18.651Z,12.15
2018-11-02T21:50:53.006Z,11.08
2018-11-02T21:53:27.731Z,15.03
2018-11-02T21:56:03.909Z,12.50
2018-11-02T21:58:39.097Z,12.50
2018-11-02T22:01:13.196Z,12.47
2018-11-02T22:03:47.501Z,12.58
2018-11-02T22:06:22.032Z,13.95
2018-11-02T22:08:56.397Z,12.00
2018-11-02T22:11:30.864Z,14.33
2018-11-02T22:14:05.270Z,13.70
2018-11-02T22:16:39.608Z,14.73
2018-11-02T22:19:13.972Z,12.80
2018-11-02T22:21:48.284Z,14.83
2018-11-02T22:24:22.757Z,13.10
2018-11-02T22:26:57.145Z,13.55
2018-11-02T22:29:31.406Z,14.63
2018-11-02T22:32:06.213Z,16.17
2018-11-02T22:34:40.837Z,16.70
2018-11-02T22:37:15.522Z,15.20
2018-11-02T22:39:49.672Z,15.50
2018-11-02T22:42:23.894Z,13.93
2018-11-02T22:44:58.325Z,14.90
2018-11-02T22:47:32.525Z,14.73
2018-11-02T22:50:07.168Z,14.47
2018-11-02T22:52:41.444Z,14.60
2018-11-02T22:55:15.756Z,15.48
2018-11-02T22:57:50.090Z,14.87
2018-11-02T23:00:24.443Z,14.50
2018-11-02T23:02:58.920Z,16.70
2018-11-02T23:05:33.446Z,14.80
2018-11-02T23:08:07.877Z,18.65
2018-11-02T23:10:42.223Z,16.48
2018-11-02T23:13:16.337Z,17.37
2018-11-02T23:15:50.636Z,18.92
2018-11-02T23:18:24.878Z,17.37
2018-11-02T23:20:59.385Z,16.42
2018-11-02T23:23:33.654Z,16.65
2018-11-02T23:26:07.990Z,17.02
2018-11-02T23:28:42.232Z,16.70
2018-11-02T23:31:16.548Z,15.65
2018-11-02T23:33:50.741Z,16.10
2018-11-02T23:36:25.064Z,17.00
2018-11-02T23:38:59.418Z,18.00
2018-11-02T23:41:33.864Z,16.48
2018-11-02T23:44:08.124Z,19.32
2018-11-02T23:46:42.355Z,18.23
2018-11-02T23:49:16.621Z,17.75
2018-11-02T23:51:50.871Z,18.37
2018-11-02T23:54:25.075Z,17.92
2018-11-02T23:56:59.265Z,18.23
2018-11-02T23:59:33.538Z,16.90
